sensor_id;sensor_type;location;lat;lon;timestamp;pressure;altitude;pressure_sealevel;temperature;humidity
60817;BME280;51921;51.518;-3.188;2023-02-28T00:00:50;103088.25;;;0.27;100.00
60817;BME280;51921;51.518;-3.188;2023-02-28T00:03:17;103084.52;;;1.89;100.00
60817;BME280;51921;51.518;-3.188;2023-02-28T00:05:42;103086.43;;;-0.19;100.00
60817;BME280;51921;51.518;-3.188;2023-02-28T00:08:08;103087.52;;;1.76;100.00
60817;BME280;51921;51.518;-3.188;2023-02-28T00:10:33;103088.16;;;2.35;100.00
60817;BME280;51921;51.518;-3.188;2023-02-28T00:13:02;103093.33;;;0.50;100.00
60817;BME280;51921;51.518;-3.188;2023-02-28T00:15:24;103094.88;;;-0.06;100.00
60817;BME280;51921;51.518;-3.188;2023-02-28T00:17:51;103101.98;;;0.62;100.00
60817;BME280;51921;51.518;-3.188;2023-02-28T00:20:15;103100.79;;;-0.73;100.00
60817;BME280;51921;51.518;-3.188;2023-02-28T00:22:49;103097.63;;;0.60;100.00
60817;BME280;51921;51.518;-3.188;2023-02-28T00:25:09;103100.06;;;0.12;100.00
60817;BME280;51921;51.518;-3.188;2023-02-28T00:27:32;103098.35;;;-0.16;100.00
60817;BME280;51921;51.518;-3.188;2023-02-28T00:29:58;103101.20;;;0.19;100.00
60817;BME280;51921;51.518;-3.188;2023-02-28T00:32:24;103102.22;;;-0.16;100.00
60817;BME280;51921;51.518;-3.188;2023-02-28T00:34:49;103096.52;;;-0.37;100.00
60817;BME280;51921;51.518;-3.188;2023-02-28T00:37:15;103092.19;;;-0.25;100.00
60817;BME280;51921;51.518;-3.188;2023-02-28T00:39:40;103093.73;;;0.32;100.00
60817;BME280;51921;51.518;-3.188;2023-02-28T00:42:07;103096.69;;;-0.01;100.00
60817;BME280;51921;51.518;-3.188;2023-02-28T00:44:32;103095.96;;;1.50;100.00
60817;BME280;51921;51.518;-3.188;2023-02-28T00:46:58;103095.16;;;0.63;100.00
60817;BME280;51921;51.518;-3.188;2023-02-28T00:49:23;103097.19;;;0.60;100.00
60817;BME280;51921;51.518;-3.188;2023-02-28T00:51:49;103095.80;;;0.74;100.00
60817;BME280;51921;51.518;-3.188;2023-02-28T00:54:15;103098.72;;;2.55;100.00
60817;BME280;51921;51.518;-3.188;2023-02-28T00:56:40;103097.66;;;3.64;100.00
60817;BME280;51921;51.518;-3.188;2023-02-28T00:59:06;103097.58;;;5.39;98.83
60817;BME280;51921;51.518;-3.188;2023-02-28T01:01:31;103100.40;;;3.33;100.00
60817;BME280;51921;51.518;-3.188;2023-02-28T01:03:57;103104.71;;;2.79;100.00
60817;BME280;51921;51.518;-3.188;2023-02-28T01:06:23;103103.28;;;3.11;100.00
60817;BME280;51921;51.518;-3.188;2023-02-28T01:08:48;103104.09;;;4.33;97.25
60817;BME280;51921;51.518;-3.188;2023-02-28T01:11:16;103104.97;;;4.83;93.70
60817;BME280;51921;51.518;-3.188;2023-02-28T01:13:40;103107.90;;;4.57;90.71
60817;BME280;51921;51.518;-3.188;2023-02-28T01:16:06;103107.30;;;5.44;87.24
60817;BME280;51921;51.518;-3.188;2023-02-28T01:18:31;103109.66;;;5.53;83.28
60817;BME280;51921;51.518;-3.188;2023-02-28T01:20:56;103105.34;;;4.65;83.75
60817;BME280;51921;51.518;-3.188;2023-02-28T01:23:22;103108.29;;;5.05;81.10
60817;BME280;51921;51.518;-3.188;2023-02-28T01:25:47;103104.73;;;4.73;79.53
60817;BME280;51921;51.518;-3.188;2023-02-28T01:28:13;103103.07;;;4.46;81.50
60817;BME280;51921;51.518;-3.188;2023-02-28T01:30:38;103103.92;;;4.94;78.65
60817;BME280;51921;51.518;-3.188;2023-02-28T01:33:04;103105.49;;;4.84;78.67
60817;BME280;51921;51.518;-3.188;2023-02-28T01:35:32;103104.00;;;5.13;77.39
60817;BME280;51921;51.518;-3.188;2023-02-28T01:37:55;103108.68;;;5.31;76.47
60817;BME280;51921;51.518;-3.188;2023-02-28T01:40:22;103109.21;;;4.98;78.03
60817;BME280;51921;51.518;-3.188;2023-02-28T01:42:46;103106.70;;;5.31;77.58
60817;BME280;51921;51.518;-3.188;2023-02-28T01:45:21;103108.17;;;5.47;78.20
60817;BME280;51921;51.518;-3.188;2023-02-28T01:47:39;103104.82;;;6.09;74.27
60817;BME280;51921;51.518;-3.188;2023-02-28T01:50:09;103103.88;;;4.92;78.21
60817;BME280;51921;51.518;-3.188;2023-02-28T01:52:30;103100.77;;;4.64;79.67
60817;BME280;51921;51.518;-3.188;2023-02-28T01:54:56;103106.54;;;4.02;85.94
60817;BME280;51921;51.518;-3.188;2023-02-28T01:57:23;103112.12;;;3.08;94.22
60817;BME280;51921;51.518;-3.188;2023-02-28T01:59:50;103105.56;;;3.66;88.61
60817;BME280;51921;51.518;-3.188;2023-02-28T02:02:12;103110.51;;;4.67;82.67
60817;BME280;51921;51.518;-3.188;2023-02-28T02:04:40;103107.71;;;4.71;82.38
60817;BME280;51921;51.518;-3.188;2023-02-28T02:07:03;103107.90;;;5.09;78.37
60817;BME280;51921;51.518;-3.188;2023-02-28T02:09:28;103111.90;;;5.95;75.79
60817;BME280;51921;51.518;-3.188;2023-02-28T02:11:55;103112.63;;;5.32;77.36
60817;BME280;51921;51.518;-3.188;2023-02-28T02:14:34;103109.92;;;5.52;74.30
60817;BME280;51921;51.518;-3.188;2023-02-28T02:16:55;103114.14;;;3.26;82.42
60817;BME280;51921;51.518;-3.188;2023-02-28T02:19:27;103110.17;;;4.26;79.16
60817;BME280;51921;51.518;-3.188;2023-02-28T02:24:24;103109.97;;;4.73;78.74
60817;BME280;51921;51.518;-3.188;2023-02-28T02:26:44;103112.16;;;4.58;77.80
60817;BME280;51921;51.518;-3.188;2023-02-28T02:29:06;103114.95;;;4.57;77.64
60817;BME280;51921;51.518;-3.188;2023-02-28T02:31:33;103108.40;;;4.38;77.74
60817;BME280;51921;51.518;-3.188;2023-02-28T02:36:13;103105.02;;;3.81;79.92
60817;BME280;51921;51.518;-3.188;2023-02-28T02:38:40;103100.56;;;4.45;77.09
60817;BME280;51921;51.518;-3.188;2023-02-28T02:41:08;103104.63;;;4.54;75.72
60817;BME280;51921;51.518;-3.188;2023-02-28T02:43:32;103105.28;;;4.97;74.35
60817;BME280;51921;51.518;-3.188;2023-02-28T02:45:56;103101.78;;;4.85;73.61
60817;BME280;51921;51.518;-3.188;2023-02-28T02:48:20;103099.05;;;5.50;72.12
60817;BME280;51921;51.518;-3.188;2023-02-28T02:50:46;103104.29;;;2.96;76.86
60817;BME280;51921;51.518;-3.188;2023-02-28T02:53:11;103105.58;;;2.41;87.03
60817;BME280;51921;51.518;-3.188;2023-02-28T02:55:44;103098.63;;;3.39;82.84
60817;BME280;51921;51.518;-3.188;2023-02-28T02:58:04;103101.37;;;2.72;84.13
60817;BME280;51921;51.518;-3.188;2023-02-28T03:00:30;103096.21;;;4.06;79.73
60817;BME280;51921;51.518;-3.188;2023-02-28T03:02:53;103098.93;;;2.83;81.62
60817;BME280;51921;51.518;-3.188;2023-02-28T03:05:21;103094.61;;;1.69;92.14
60817;BME280;51921;51.518;-3.188;2023-02-28T03:07:43;103095.02;;;2.96;83.23
60817;BME280;51921;51.518;-3.188;2023-02-28T03:10:26;103096.00;;;3.17;85.00
60817;BME280;51921;51.518;-3.188;2023-02-28T03:12:40;103095.79;;;3.18;85.22
60817;BME280;51921;51.518;-3.188;2023-02-28T03:15:08;103095.38;;;3.53;82.58
60817;BME280;51921;51.518;-3.188;2023-02-28T03:17:38;103092.97;;;4.31;76.77
60817;BME280;51921;51.518;-3.188;2023-02-28T03:19:55;103094.37;;;-0.07;99.15
60817;BME280;51921;51.518;-3.188;2023-02-28T03:22:34;103093.39;;;-0.37;100.00
60817;BME280;51921;51.518;-3.188;2023-02-28T03:24:49;103096.56;;;-0.31;100.00
60817;BME280;51921;51.518;-3.188;2023-02-28T03:27:11;103094.71;;;0.82;100.00
60817;BME280;51921;51.518;-3.188;2023-02-28T03:29:37;103092.29;;;2.26;98.37
60817;BME280;51921;51.518;-3.188;2023-02-28T03:32:05;103097.28;;;2.18;90.04
60817;BME280;51921;51.518;-3.188;2023-02-28T03:34:29;103093.88;;;1.45;96.66
60817;BME280;51921;51.518;-3.188;2023-02-28T03:36:53;103090.89;;;1.95;92.12
60817;BME280;51921;51.518;-3.188;2023-02-28T03:39:19;103093.44;;;2.43;90.44
60817;BME280;51921;51.518;-3.188;2023-02-28T03:41:45;103086.63;;;4.05;80.97
60817;BME280;51921;51.518;-3.188;2023-02-28T03:44:12;103091.59;;;3.63;80.94
60817;BME280;51921;51.518;-3.188;2023-02-28T03:46:37;103088.22;;;4.89;77.04
60817;BME280;51921;51.518;-3.188;2023-02-28T03:49:03;103086.69;;;4.31;74.19
60817;BME280;51921;51.518;-3.188;2023-02-28T03:51:26;103086.98;;;4.12;78.05
60817;BME280;51921;51.518;-3.188;2023-02-28T03:53:53;103083.45;;;4.20;76.83
60817;BME280;51921;51.518;-3.188;2023-02-28T03:56:18;103081.84;;;4.75;74.59
60817;BME280;51921;51.518;-3.188;2023-02-28T03:58:46;103083.01;;;4.96;73.52
60817;BME280;51921;51.518;-3.188;2023-02-28T04:01:10;103084.05;;;4.94;73.06
60817;BME280;51921;51.518;-3.188;2023-02-28T04:03:34;103081.73;;;5.44;71.63
60817;BME280;51921;51.518;-3.188;2023-02-28T04:05:59;103081.93;;;5.00;71.39
60817;BME280;51921;51.518;-3.188;2023-02-28T04:08:24;103083.66;;;5.19;70.97
60817;BME280;51921;51.518;-3.188;2023-02-28T04:10:55;103086.70;;;4.77;70.90
60817;BME280;51921;51.518;-3.188;2023-02-28T04:13:15;103087.53;;;4.47;71.84
60817;BME280;51921;51.518;-3.188;2023-02-28T04:15:41;103089.61;;;4.54;70.54
60817;BME280;51921;51.518;-3.188;2023-02-28T04:18:07;103095.36;;;2.39;79.56
60817;BME280;51921;51.518;-3.188;2023-02-28T04:20:32;103094.33;;;2.22;87.19
60817;BME280;51921;51.518;-3.188;2023-02-28T04:22:57;103096.83;;;1.03;94.79
60817;BME280;51921;51.518;-3.188;2023-02-28T04:25:23;103096.81;;;0.61;100.00
60817;BME280;51921;51.518;-3.188;2023-02-28T04:27:49;103097.35;;;3.21;92.08
60817;BME280;51921;51.518;-3.188;2023-02-28T04:30:15;103098.04;;;3.22;84.60
60817;BME280;51921;51.518;-3.188;2023-02-28T04:32:40;103094.75;;;3.41;85.15
60817;BME280;51921;51.518;-3.188;2023-02-28T04:35:07;103093.95;;;3.49;82.42
60817;BME280;51921;51.518;-3.188;2023-02-28T04:37:31;103096.18;;;4.33;81.36
60817;BME280;51921;51.518;-3.188;2023-02-28T04:39:57;103096.72;;;6.27;73.32
60817;BME280;51921;51.518;-3.188;2023-02-28T04:42:22;103095.30;;;5.02;75.74
60817;BME280;51921;51.518;-3.188;2023-02-28T04:44:48;103094.08;;;5.60;73.27
60817;BME280;51921;51.518;-3.188;2023-02-28T04:47:14;103091.04;;;5.28;71.93
60817;BME280;51921;51.518;-3.188;2023-02-28T04:49:39;103091.75;;;4.00;76.09
60817;BME280;51921;51.518;-3.188;2023-02-28T04:52:05;103097.05;;;5.06;74.60
60817;BME280;51921;51.518;-3.188;2023-02-28T04:54:30;103105.23;;;5.19;73.08
60817;BME280;51921;51.518;-3.188;2023-02-28T04:56:56;103111.99;;;5.32;72.85
60817;BME280;51921;51.518;-3.188;2023-02-28T04:59:22;103120.03;;;4.75;72.51
60817;BME280;51921;51.518;-3.188;2023-02-28T05:01:48;103123.23;;;2.90;84.20
60817;BME280;51921;51.518;-3.188;2023-02-28T05:04:13;103117.81;;;4.72;80.25
60817;BME280;51921;51.518;-3.188;2023-02-28T05:06:38;103116.82;;;4.61;79.01
60817;BME280;51921;51.518;-3.188;2023-02-28T05:09:04;103119.11;;;3.50;86.17
60817;BME280;51921;51.518;-3.188;2023-02-28T05:11:31;103122.33;;;1.77;91.48
60817;BME280;51921;51.518;-3.188;2023-02-28T05:13:56;103122.81;;;2.06;91.99
60817;BME280;51921;51.518;-3.188;2023-02-28T05:16:21;103125.43;;;3.03;86.61
60817;BME280;51921;51.518;-3.188;2023-02-28T05:18:47;103121.58;;;3.27;86.60
60817;BME280;51921;51.518;-3.188;2023-02-28T05:21:22;103121.68;;;3.01;88.96
60817;BME280;51921;51.518;-3.188;2023-02-28T05:23:38;103121.52;;;3.65;84.18
60817;BME280;51921;51.518;-3.188;2023-02-28T05:26:03;103127.52;;;2.00;91.32
60817;BME280;51921;51.518;-3.188;2023-02-28T05:28:29;103130.15;;;1.92;97.29
60817;BME280;51921;51.518;-3.188;2023-02-28T05:30:54;103130.54;;;3.41;90.74
60817;BME280;51921;51.518;-3.188;2023-02-28T05:33:20;103141.39;;;3.03;93.16
60817;BME280;51921;51.518;-3.188;2023-02-28T05:35:46;103141.36;;;2.97;93.57
60817;BME280;51921;51.518;-3.188;2023-02-28T05:38:11;103139.23;;;3.36;91.09
60817;BME280;51921;51.518;-3.188;2023-02-28T05:40:38;103140.33;;;2.97;91.61
60817;BME280;51921;51.518;-3.188;2023-02-28T05:43:03;103145.68;;;2.55;91.61
60817;BME280;51921;51.518;-3.188;2023-02-28T05:45:28;103142.85;;;2.41;97.61
60817;BME280;51921;51.518;-3.188;2023-02-28T05:47:54;103141.25;;;1.84;100.00
60817;BME280;51921;51.518;-3.188;2023-02-28T05:50:19;103143.44;;;0.88;100.00
60817;BME280;51921;51.518;-3.188;2023-02-28T05:52:49;103144.65;;;1.42;100.00
60817;BME280;51921;51.518;-3.188;2023-02-28T05:55:11;103142.65;;;2.04;100.00
60817;BME280;51921;51.518;-3.188;2023-02-28T05:57:36;103146.52;;;1.15;100.00
60817;BME280;51921;51.518;-3.188;2023-02-28T06:00:03;103150.57;;;0.12;100.00
60817;BME280;51921;51.518;-3.188;2023-02-28T06:02:28;103152.21;;;0.11;100.00
60817;BME280;51921;51.518;-3.188;2023-02-28T06:04:53;103151.05;;;0.73;100.00
60817;BME280;51921;51.518;-3.188;2023-02-28T06:07:19;103152.10;;;-0.43;100.00
60817;BME280;51921;51.518;-3.188;2023-02-28T06:09:45;103155.33;;;-0.19;100.00
60817;BME280;51921;51.518;-3.188;2023-02-28T06:12:10;103159.66;;;-0.42;100.00
60817;BME280;51921;51.518;-3.188;2023-02-28T06:14:36;103158.52;;;-0.37;100.00
60817;BME280;51921;51.518;-3.188;2023-02-28T06:17:03;103158.27;;;0.21;100.00
60817;BME280;51921;51.518;-3.188;2023-02-28T06:19:27;103159.49;;;-0.44;100.00
60817;BME280;51921;51.518;-3.188;2023-02-28T06:21:54;103165.36;;;0.09;100.00
60817;BME280;51921;51.518;-3.188;2023-02-28T06:24:19;103168.69;;;-0.44;100.00
60817;BME280;51921;51.518;-3.188;2023-02-28T06:26:44;103170.98;;;-0.29;100.00
60817;BME280;51921;51.518;-3.188;2023-02-28T06:29:10;103175.71;;;0.04;100.00
60817;BME280;51921;51.518;-3.188;2023-02-28T06:31:35;103172.28;;;-0.35;100.00
60817;BME280;51921;51.518;-3.188;2023-02-28T06:34:01;103169.26;;;0.23;100.00
60817;BME280;51921;51.518;-3.188;2023-02-28T06:36:27;103175.13;;;-0.27;100.00
60817;BME280;51921;51.518;-3.188;2023-02-28T06:38:52;103173.10;;;-0.82;100.00
60817;BME280;51921;51.518;-3.188;2023-02-28T06:41:18;103179.46;;;-0.84;100.00
60817;BME280;51921;51.518;-3.188;2023-02-28T06:43:44;103171.80;;;-0.10;100.00
60817;BME280;51921;51.518;-3.188;2023-02-28T06:46:13;103171.54;;;-0.06;100.00
60817;BME280;51921;51.518;-3.188;2023-02-28T06:48:35;103161.15;;;-0.27;100.00
60817;BME280;51921;51.518;-3.188;2023-02-28T06:51:04;103167.34;;;-0.67;100.00
60817;BME280;51921;51.518;-3.188;2023-02-28T06:53:26;103172.75;;;-0.27;100.00
60817;BME280;51921;51.518;-3.188;2023-02-28T06:55:52;103169.96;;;0.39;100.00
60817;BME280;51921;51.518;-3.188;2023-02-28T06:58:17;103171.89;;;1.28;100.00
60817;BME280;51921;51.518;-3.188;2023-02-28T07:00:44;103165.54;;;1.23;100.00
60817;BME280;51921;51.518;-3.188;2023-02-28T07:03:09;103164.17;;;1.25;100.00
60817;BME280;51921;51.518;-3.188;2023-02-28T07:05:35;103171.70;;;0.94;100.00
60817;BME280;51921;51.518;-3.188;2023-02-28T07:08:00;103173.92;;;1.73;100.00
60817;BME280;51921;51.518;-3.188;2023-02-28T07:10:26;103174.76;;;0.81;100.00
60817;BME280;51921;51.518;-3.188;2023-02-28T07:12:51;103179.28;;;0.46;100.00
60817;BME280;51921;51.518;-3.188;2023-02-28T07:15:17;103176.34;;;1.29;100.00
60817;BME280;51921;51.518;-3.188;2023-02-28T07:17:43;103173.81;;;1.85;100.00
60817;BME280;51921;51.518;-3.188;2023-02-28T07:20:09;103181.01;;;0.28;100.00
60817;BME280;51921;51.518;-3.188;2023-02-28T07:22:34;103182.48;;;0.24;100.00
60817;BME280;51921;51.518;-3.188;2023-02-28T07:24:59;103181.80;;;0.16;100.00
60817;BME280;51921;51.518;-3.188;2023-02-28T07:27:25;103181.21;;;0.14;100.00
60817;BME280;51921;51.518;-3.188;2023-02-28T07:29:51;103184.90;;;-0.24;100.00
60817;BME280;51921;51.518;-3.188;2023-02-28T07:32:16;103184.79;;;0.11;100.00
60817;BME280;51921;51.518;-3.188;2023-02-28T07:34:42;103182.94;;;0.17;100.00
60817;BME280;51921;51.518;-3.188;2023-02-28T07:37:08;103174.37;;;2.02;100.00
60817;BME280;51921;51.518;-3.188;2023-02-28T07:39:33;103173.08;;;2.20;100.00
60817;BME280;51921;51.518;-3.188;2023-02-28T07:41:59;103174.18;;;1.84;100.00
60817;BME280;51921;51.518;-3.188;2023-02-28T07:44:25;103177.55;;;2.42;100.00
60817;BME280;51921;51.518;-3.188;2023-02-28T07:46:51;103183.21;;;1.42;100.00
60817;BME280;51921;51.518;-3.188;2023-02-28T07:49:16;103186.52;;;1.83;100.00
60817;BME280;51921;51.518;-3.188;2023-02-28T07:51:42;103190.51;;;2.13;100.00
60817;BME280;51921;51.518;-3.188;2023-02-28T07:54:07;103194.97;;;2.82;100.00
60817;BME280;51921;51.518;-3.188;2023-02-28T07:56:33;103194.01;;;2.77;100.00
60817;BME280;51921;51.518;-3.188;2023-02-28T07:58:58;103196.73;;;4.24;100.00
60817;BME280;51921;51.518;-3.188;2023-02-28T08:01:24;103196.89;;;4.94;100.00
60817;BME280;51921;51.518;-3.188;2023-02-28T08:03:50;103194.19;;;5.71;100.00
60817;BME280;51921;51.518;-3.188;2023-02-28T08:06:18;103192.78;;;6.01;100.00
60817;BME280;51921;51.518;-3.188;2023-02-28T08:08:41;103190.86;;;6.43;100.00
60817;BME280;51921;51.518;-3.188;2023-02-28T08:11:06;103189.46;;;6.00;96.60
60817;BME280;51921;51.518;-3.188;2023-02-28T08:13:33;103187.97;;;6.49;97.92
60817;BME280;51921;51.518;-3.188;2023-02-28T08:15:58;103189.38;;;6.02;95.43
60817;BME280;51921;51.518;-3.188;2023-02-28T08:18:23;103194.27;;;6.53;94.30
60817;BME280;51921;51.518;-3.188;2023-02-28T08:20:49;103190.97;;;6.34;92.12
60817;BME280;51921;51.518;-3.188;2023-02-28T08:23:14;103192.42;;;5.18;93.56
60817;BME280;51921;51.518;-3.188;2023-02-28T08:25:40;103191.53;;;5.35;95.06
60817;BME280;51921;51.518;-3.188;2023-02-28T08:28:05;103190.88;;;6.00;93.03
60817;BME280;51921;51.518;-3.188;2023-02-28T08:30:31;103192.79;;;4.76;93.73
60817;BME280;51921;51.518;-3.188;2023-02-28T08:32:56;103195.60;;;4.41;100.00
60817;BME280;51921;51.518;-3.188;2023-02-28T08:35:22;103200.39;;;5.48;96.86
60817;BME280;51921;51.518;-3.188;2023-02-28T08:37:48;103201.08;;;5.76;96.95
60817;BME280;51921;51.518;-3.188;2023-02-28T08:40:12;103196.67;;;6.10;93.89
60817;BME280;51921;51.518;-3.188;2023-02-28T08:42:38;103207.80;;;3.44;100.00
60817;BME280;51921;51.518;-3.188;2023-02-28T08:45:04;103211.45;;;2.92;100.00
60817;BME280;51921;51.518;-3.188;2023-02-28T08:47:29;103213.45;;;3.16;100.00
60817;BME280;51921;51.518;-3.188;2023-02-28T08:49:54;103211.48;;;4.44;100.00
60817;BME280;51921;51.518;-3.188;2023-02-28T08:52:20;103215.65;;;2.64;100.00
60817;BME280;51921;51.518;-3.188;2023-02-28T08:54:45;103215.61;;;2.19;100.00
60817;BME280;51921;51.518;-3.188;2023-02-28T08:57:11;103220.11;;;0.82;100.00
60817;BME280;51921;51.518;-3.188;2023-02-28T08:59:37;103220.34;;;1.05;100.00
60817;BME280;51921;51.518;-3.188;2023-02-28T09:02:02;103217.75;;;1.32;100.00
60817;BME280;51921;51.518;-3.188;2023-02-28T09:04:27;103216.92;;;0.72;100.00
60817;BME280;51921;51.518;-3.188;2023-02-28T09:06:53;103215.04;;;0.61;100.00
60817;BME280;51921;51.518;-3.188;2023-02-28T09:09:19;103210.54;;;0.69;100.00
60817;BME280;51921;51.518;-3.188;2023-02-28T09:11:44;103202.05;;;0.73;100.00
60817;BME280;51921;51.518;-3.188;2023-02-28T09:14:10;103205.33;;;0.95;100.00
60817;BME280;51921;51.518;-3.188;2023-02-28T09:16:36;103206.00;;;0.92;100.00
60817;BME280;51921;51.518;-3.188;2023-02-28T09:19:02;103201.54;;;0.91;100.00
60817;BME280;51921;51.518;-3.188;2023-02-28T09:21:27;103197.07;;;1.00;100.00
60817;BME280;51921;51.518;-3.188;2023-02-28T09:23:53;103202.07;;;0.76;100.00
60817;BME280;51921;51.518;-3.188;2023-02-28T09:26:21;103201.28;;;0.80;100.00
60817;BME280;51921;51.518;-3.188;2023-02-28T09:28:44;103206.82;;;0.66;100.00
60817;BME280;51921;51.518;-3.188;2023-02-28T09:31:13;103205.18;;;0.60;100.00
60817;BME280;51921;51.518;-3.188;2023-02-28T09:33:35;103207.88;;;0.44;100.00
60817;BME280;51921;51.518;-3.188;2023-02-28T09:36:02;103207.30;;;0.82;100.00
60817;BME280;51921;51.518;-3.188;2023-02-28T09:38:26;103202.52;;;1.25;100.00
60817;BME280;51921;51.518;-3.188;2023-02-28T09:40:55;103202.58;;;1.43;100.00
60817;BME280;51921;51.518;-3.188;2023-02-28T09:43:20;103199.05;;;0.96;100.00
60817;BME280;51921;51.518;-3.188;2023-02-28T09:45:48;103196.60;;;1.18;100.00
60817;BME280;51921;51.518;-3.188;2023-02-28T09:48:12;103201.00;;;0.87;100.00
60817;BME280;51921;51.518;-3.188;2023-02-28T09:50:37;103200.90;;;0.80;100.00
60817;BME280;51921;51.518;-3.188;2023-02-28T09:53:03;103200.66;;;0.99;100.00
60817;BME280;51921;51.518;-3.188;2023-02-28T09:55:30;103206.89;;;0.51;100.00
60817;BME280;51921;51.518;-3.188;2023-02-28T09:57:51;103213.12;;;0.87;100.00
60817;BME280;51921;51.518;-3.188;2023-02-28T10:00:19;103210.80;;;0.79;100.00
60817;BME280;51921;51.518;-3.188;2023-02-28T10:02:53;103212.12;;;0.70;100.00
60817;BME280;51921;51.518;-3.188;2023-02-28T10:05:11;103216.82;;;0.44;100.00
60817;BME280;51921;51.518;-3.188;2023-02-28T10:07:44;103218.03;;;0.52;100.00
60817;BME280;51921;51.518;-3.188;2023-02-28T10:10:01;103210.83;;;0.39;100.00
60817;BME280;51921;51.518;-3.188;2023-02-28T10:12:25;103208.58;;;0.72;100.00
60817;BME280;51921;51.518;-3.188;2023-02-28T10:14:52;103206.00;;;1.26;100.00
60817;BME280;51921;51.518;-3.188;2023-02-28T10:17:18;103202.54;;;0.87;100.00
60817;BME280;51921;51.518;-3.188;2023-02-28T10:19:55;103209.01;;;0.77;100.00
60817;BME280;51921;51.518;-3.188;2023-02-28T10:22:11;103203.74;;;1.32;100.00
60817;BME280;51921;51.518;-3.188;2023-02-28T10:24:35;103195.54;;;2.10;100.00
60817;BME280;51921;51.518;-3.188;2023-02-28T10:27:00;103197.75;;;1.16;100.00
60817;BME280;51921;51.518;-3.188;2023-02-28T10:29:23;103196.79;;;1.30;100.00
60817;BME280;51921;51.518;-3.188;2023-02-28T10:31:49;103195.27;;;1.18;100.00
60817;BME280;51921;51.518;-3.188;2023-02-28T10:34:14;103192.05;;;0.90;100.00
60817;BME280;51921;51.518;-3.188;2023-02-28T10:36:40;103183.69;;;2.33;100.00
60817;BME280;51921;51.518;-3.188;2023-02-28T10:41:32;103186.45;;;1.19;100.00
60817;BME280;51921;51.518;-3.188;2023-02-28T10:46:22;103184.78;;;1.37;100.00
60817;BME280;51921;51.518;-3.188;2023-02-28T10:51:15;103180.64;;;1.13;100.00
60817;BME280;51921;51.518;-3.188;2023-02-28T10:53:45;103177.21;;;1.36;100.00
60817;BME280;51921;51.518;-3.188;2023-02-28T10:56:06;103180.82;;;1.28;100.00
60817;BME280;51921;51.518;-3.188;2023-02-28T10:58:31;103183.66;;;1.00;100.00
60817;BME280;51921;51.518;-3.188;2023-02-28T11:00:56;103188.43;;;1.13;100.00
60817;BME280;51921;51.518;-3.188;2023-02-28T11:03:29;103188.08;;;1.84;100.00
60817;BME280;51921;51.518;-3.188;2023-02-28T11:05:47;103188.95;;;1.33;100.00
60817;BME280;51921;51.518;-3.188;2023-02-28T11:08:15;103186.70;;;1.19;100.00
60817;BME280;51921;51.518;-3.188;2023-02-28T11:10:38;103190.39;;;1.62;100.00
60817;BME280;51921;51.518;-3.188;2023-02-28T11:13:03;103189.58;;;1.13;100.00
60817;BME280;51921;51.518;-3.188;2023-02-28T11:15:30;103185.58;;;1.43;100.00
60817;BME280;51921;51.518;-3.188;2023-02-28T11:17:56;103189.59;;;1.50;100.00
60817;BME280;51921;51.518;-3.188;2023-02-28T11:20:22;103182.84;;;1.20;100.00
60817;BME280;51921;51.518;-3.188;2023-02-28T11:22:46;103191.43;;;1.43;100.00
60817;BME280;51921;51.518;-3.188;2023-02-28T11:25:20;103184.49;;;1.52;100.00
60817;BME280;51921;51.518;-3.188;2023-02-28T11:27:47;103178.73;;;1.52;100.00
60817;BME280;51921;51.518;-3.188;2023-02-28T11:30:02;103172.96;;;1.72;100.00
60817;BME280;51921;51.518;-3.188;2023-02-28T11:32:28;103167.15;;;2.16;100.00
60817;BME280;51921;51.518;-3.188;2023-02-28T11:35:00;103160.81;;;2.25;100.00
60817;BME280;51921;51.518;-3.188;2023-02-28T11:37:19;103162.86;;;2.40;100.00
60817;BME280;51921;51.518;-3.188;2023-02-28T11:39:45;103157.80;;;2.09;100.00
60817;BME280;51921;51.518;-3.188;2023-02-28T11:42:26;103157.08;;;2.14;100.00
60817;BME280;51921;51.518;-3.188;2023-02-28T11:44:46;103156.97;;;1.58;100.00
60817;BME280;51921;51.518;-3.188;2023-02-28T11:47:06;103156.41;;;1.38;100.00
60817;BME280;51921;51.518;-3.188;2023-02-28T11:49:32;103157.77;;;1.96;100.00
60817;BME280;51921;51.518;-3.188;2023-02-28T11:51:55;103159.34;;;1.82;100.00
60817;BME280;51921;51.518;-3.188;2023-02-28T11:54:29;103154.09;;;1.76;100.00
60817;BME280;51921;51.518;-3.188;2023-02-28T11:56:46;103149.81;;;1.95;100.00
60817;BME280;51921;51.518;-3.188;2023-02-28T11:59:27;103149.31;;;2.55;100.00
60817;BME280;51921;51.518;-3.188;2023-02-28T12:01:43;103149.61;;;1.44;100.00
60817;BME280;51921;51.518;-3.188;2023-02-28T12:04:10;103149.36;;;1.77;100.00
60817;BME280;51921;51.518;-3.188;2023-02-28T12:06:30;103145.19;;;2.56;100.00
60817;BME280;51921;51.518;-3.188;2023-02-28T12:09:00;103151.66;;;1.68;100.00
60817;BME280;51921;51.518;-3.188;2023-02-28T12:11:26;103149.70;;;1.48;100.00
60817;BME280;51921;51.518;-3.188;2023-02-28T12:13:48;103152.41;;;1.56;100.00
60817;BME280;51921;51.518;-3.188;2023-02-28T12:16:20;103153.74;;;1.62;100.00
60817;BME280;51921;51.518;-3.188;2023-02-28T12:18:45;103154.42;;;1.74;100.00
60817;BME280;51921;51.518;-3.188;2023-02-28T12:21:03;103152.89;;;1.54;100.00
60817;BME280;51921;51.518;-3.188;2023-02-28T12:25:58;103145.15;;;1.51;100.00
60817;BME280;51921;51.518;-3.188;2023-02-28T12:28:17;103133.41;;;2.68;100.00
60817;BME280;51921;51.518;-3.188;2023-02-28T12:30:50;103128.90;;;2.72;100.00
60817;BME280;51921;51.518;-3.188;2023-02-28T12:33:10;103131.98;;;2.85;100.00
60817;BME280;51921;51.518;-3.188;2023-02-28T12:35:36;103125.71;;;2.80;100.00
60817;BME280;51921;51.518;-3.188;2023-02-28T12:38:02;103123.64;;;2.26;100.00
60817;BME280;51921;51.518;-3.188;2023-02-28T12:40:26;103125.72;;;2.28;100.00
60817;BME280;51921;51.518;-3.188;2023-02-28T12:42:52;103122.48;;;2.25;100.00
60817;BME280;51921;51.518;-3.188;2023-02-28T12:45:19;103115.62;;;2.04;100.00
60817;BME280;51921;51.518;-3.188;2023-02-28T12:47:42;103112.50;;;2.69;100.00